Latest Weather Observations for Kingaroy

IDQ60901

Issued at 11:21 pm EST Saturday 23 May 2015 (issued every 10 minutes, with the page automatically refreshed every 10 minutes)

About weather observations | Map of Brisbane area stations | Latest observations for Brisbane area | Other Formats
Station Details ID: 040922 Name: KINGAROY AIRPORT Lat: -26.57 Lon: 151.84 Height: 433.67 m
Data from the previous 72 hours. | See also: Recent months at Kingaroy
Date/Time
EST
Tmp

°C
App
Tmp
°C
Dew
Point
°C
Rel
Hum
%
Delta-T

°C
Wind Press
QNH
hPa
Press
MSL
hPa
Rain
since
9 am
mm
Dir
 
Spd
km/h
Gust
km/h
Spd
kts
Gust
kts
23/11:00pm 5.7 2.7 4.3 91 0.6 SSW 9 11 5 6 1026.7 1026.1 0.0
23/10:30pm 5.8 3.4 4.4 91 0.6 SSW 6 7 3 4 1026.5 1025.8 0.0
23/10:00pm 7.2 4.9 5.5 89 0.8 S 7 9 4 5 1026.8 1026.2 0.0
23/09:30pm 7.5 4.8 5.5 87 0.9 SSE 9 11 5 6 1026.5 1025.8 0.0
23/09:00pm 9.2 6.4 7.0 86 1.1 S 11 13 6 7 1026.3 1025.6 0.0
23/08:30pm 11.0 8.4 7.7 80 1.6 SE 11 15 6 8 1026.3 1025.6 0.0
23/08:00pm 11.7 9.6 8.2 79 1.7 SE 9 11 5 6 1026.3 1025.6 0.0
23/07:30pm 12.7 10.2 8.2 74 2.3 SE 11 15 6 8 1026.1 1025.4 0.0
23/07:00pm 13.3 10.8 8.2 71 2.6 SE 11 15 6 8 1025.7 1025.1 0.0
23/06:30pm 14.1 11.5 7.9 66 3.1 SE 11 15 6 8 1025.5 1024.9 0.0
23/06:00pm 13.9 11.6 7.4 65 3.2 SE 9 13 5 7 1025.2 1024.6 0.0
23/05:30pm 14.8 12.5 7.4 61 3.7 SE 9 13 5 7 1025.0 1024.4 0.0
23/05:00pm 15.8 13.1 7.3 57 4.3 SE 11 17 6 9 1024.7 1024.1 0.0
23/04:30pm 17.6 13.4 7.6 52 5.2 SSE 19 24 10 13 1024.5 1023.8 0.0
23/04:00pm 17.2 13.5 6.4 49 5.4 SE 15 24 8 13 1024.2 1023.5 0.0
23/03:30pm 18.6 15.0 6.8 46 6.0 ESE 15 20 8 11 1024.1 1023.4 0.0
23/03:00pm 18.7 14.3 7.5 48 5.8 SE 20 32 11 17 1024.0 1023.3 0.0
23/02:30pm 19.7 15.5 8.4 48 6.0 ESE 20 33 11 18 1023.4 1022.8 0.0
23/02:00pm 19.3 14.8 7.1 45 6.3 ESE 20 30 11 16 1023.5 1022.9 0.0
23/01:30pm 18.7 14.1 8.1 50 5.6 SE 22 33 12 18 1023.4 1022.8 0.0
23/01:00pm 19.5 15.5 8.2 48 5.9 ESE 19 30 10 16 1023.2 1022.6 0.0
23/12:30pm 18.7 13.3 7.8 49 5.7 ESE 26 41 14 22 1023.4 1022.8 0.0
23/12:00pm 18.9 14.6 7.7 48 5.8 ESE 20 35 11 19 1024.1 1023.4 0.0
23/11:30am 18.3 13.3 8.0 51 5.4 SE 24 37 13 20 1024.3 1023.6 0.0
23/11:00am 17.6 12.8 7.4 51 5.2 ESE 22 33 12 18 1024.6 1024.0 0.0
23/10:30am 17.6 14.3 7.9 53 5.0 SE 15 28 8 15 1024.7 1024.1 0.0
23/10:00am 17.0 13.0 8.2 56 4.6 SE 19 41 10 22 1024.6 1024.0 0.0
23/09:00am 14.8 9.8 8.1 64 3.4 SE 24 41 13 22 1023.7 1023.0 0.0
23/08:35am 14.1 7.6 8.3 68 3.0 SSE 32 52 17 28 1023.3 1022.7 0.0
23/08:30am 13.8 7.6 8.0 68 2.9 SSE 30 43 16 23 1023.3 1022.7 0.0
23/08:00am 12.6 8.7 8.5 76 2.1 S 19 26 10 14 1023.1 1022.5 0.0
23/07:30am 11.0 7.9 8.9 87 1.1 S 15 20 8 11 1022.6 1022.0 0.0
23/07:00am 9.0 6.9 8.1 94 0.4 SSW 9 13 5 7 1022.3 1021.6 0.0
23/06:30am 8.3 6.0 7.5 95 0.4 S 9 15 5 8 1022.0 1021.3 0.0
23/06:00am 8.1 6.1 7.0 93 0.5 S 7 9 4 5 1021.7 1021.0 0.0
23/05:30am 8.6 6.7 7.4 92 0.6 S 7 11 4 6 1021.6 1020.9 0.0
23/05:00am 8.3 5.9 7.1 92 0.6 S 9 13 5 7 1021.3 1020.6 0.0
23/04:30am 8.8 5.8 7.6 92 0.6 SSW 13 17 7 9 1021.1 1020.5 0.0
23/04:00am 8.9 6.2 7.5 91 0.7 SSW 11 15 6 8 1021.0 1020.4 0.0
23/03:30am 9.5 7.4 8.1 91 0.7 S 9 17 5 9 1020.9 1020.3 0.0
23/03:00am 9.8 6.2 8.2 90 0.8 S 17 22 9 12 1020.9 1020.3 0.0
23/02:30am 10.1 6.1 8.4 89 0.8 S 19 26 10 14 1020.9 1020.3 0.0
23/02:00am 10.0 6.7 8.1 88 0.9 S 15 22 8 12 1021.3 1020.6 0.0
23/01:30am 10.5 6.3 8.4 87 1.1 SSW 20 28 11 15 1021.5 1020.8 0.0
23/01:00am 10.6 7.0 8.5 87 1.1 SSW 17 26 9 14 1021.9 1021.2 0.0
23/12:30am 10.7 7.1 8.5 86 1.1 SSW 17 20 9 11 1021.9 1021.2 0.0
23/12:00am 10.4 7.9 8.2 86 1.1 SW 11 19 6 10 1021.7 1021.0 0.0
 
Date/Time
EST
Tmp

°C
App
Tmp
°C
Dew
Point
°C
Rel
Hum
%
Delta-T

°C
Wind Press
QNH
hPa
Press
MSL
hPa
Rain
since
9 am
mm
Dir
 
Spd
km/h
Gust
km/h
Spd
kts
Gust
kts
22/11:30pm 10.1 7.5 7.7 85 1.2 SSW 11 17 6 9 1021.6 1020.9 0.0
22/11:00pm 10.1 7.8 7.3 83 1.4 SW 9 13 5 7 1021.8 1021.1 0.0
22/10:30pm 9.3 6.8 6.7 84 1.2 SW 9 15 5 8 1021.8 1021.1 0.0
22/10:00pm 9.6 7.5 6.7 82 1.4 W 7 11 4 6 1022.2 1021.5 0.0
22/09:30pm 9.8 7.7 6.5 80 1.6 WSW 7 11 4 6 1022.0 1021.3 0.0
22/09:00pm 9.8 6.8 6.2 78 1.7 S 11 15 6 8 1021.9 1021.2 0.0
22/08:30pm 9.4 8.1 5.9 79 1.6 W 2 7 1 4 1021.6 1020.9 0.0
22/08:00pm 10.7 8.1 6.3 74 2.1 WSW 9 11 5 6 1021.1 1020.5 0.0
22/07:30pm 11.5 8.2 6.4 71 2.5 SW 13 20 7 11 1020.9 1020.3 0.0
22/07:00pm 12.1 8.6 7.0 71 2.5 SW 15 20 8 11 1020.7 1020.1 0.0
22/06:30pm 12.1 8.6 7.0 71 2.5 WSW 15 24 8 13 1020.2 1019.5 0.0
22/06:00pm 12.2 8.2 6.7 69 2.7 SW 17 24 9 13 1020.0 1019.3 0.0
22/05:30pm 12.3 7.9 6.6 68 2.8 SW 19 32 10 17 1019.8 1019.1 0.0
22/05:00pm 12.4 7.0 6.5 67 2.9 SW 24 37 13 20 1019.5 1018.8 0.0
22/04:30pm 12.4 7.0 6.5 67 2.9 SW 24 37 13 20 1019.6 1018.9 0.0
22/04:00pm 12.6 8.1 6.2 65 3.1 SW 19 28 10 15 1019.4 1018.7 0.0
22/03:30pm 13.3 8.0 6.9 65 3.2 WSW 24 32 13 17 1019.3 1018.6 0.0
22/03:00pm 13.5 8.4 6.1 61 3.6 SW 22 32 12 17 1019.1 1018.4 0.0
22/02:30pm 14.3 8.8 5.9 57 4.1 WSW 24 39 13 21 1018.9 1018.2 0.0
22/02:00pm 15.3 9.8 6.1 54 4.5 SW 24 39 13 21 1018.8 1018.1 0.0
22/01:30pm 14.6 7.9 5.7 55 4.3 WSW 30 41 16 22 1018.6 1018.0 0.0
22/01:00pm 15.1 8.3 5.3 52 4.7 WSW 30 48 16 26 1018.8 1018.1 0.0
22/12:56pm 15.2 8.8 5.1 51 4.9 WSW 28 48 15 26 1018.8 1018.1 0.0
22/12:30pm 15.2 8.5 5.7 53 4.6 WSW 30 43 16 23 1019.0 1018.3 0.0
22/12:00pm 15.3 9.2 6.6 56 4.3 WSW 28 39 15 21 1019.3 1018.6 0.0
22/11:30am 15.1 9.2 5.9 54 4.5 WSW 26 43 14 23 1019.6 1018.9 0.0
22/11:00am 13.9 7.8 6.5 61 3.6 W 28 35 15 19 1019.7 1019.0 0.0
22/10:30am 14.2 8.6 7.3 63 3.5 WSW 26 37 14 20 1019.9 1019.2 0.0
22/10:00am 13.4 8.1 7.0 65 3.2 WSW 24 35 13 19 1020.2 1019.5 0.0
22/09:30am 12.7 7.1 7.2 69 2.7 WSW 26 39 14 21 1020.4 1019.7 0.0
22/09:00am 11.9 7.5 7.6 75 2.1 WSW 20 32 11 17 1020.3 1019.6 3.8
22/08:30am 11.3 6.6 7.8 79 1.7 WSW 22 35 12 19 1020.2 1019.5 3.8
22/08:00am 11.2 7.2 8.2 82 1.5 WSW 19 28 10 15 1019.8 1019.1 3.8
22/07:30am 10.9 6.8 7.8 81 1.5 WSW 19 28 10 15 1019.4 1018.7 3.8
22/07:00am 10.7 7.2 7.4 80 1.6 WSW 15 20 8 11 1019.1 1018.4 3.8
22/06:30am 9.4 7.7 8.3 93 0.5 WSW 7 9 4 5 1018.4 1017.7 3.8
22/06:00am 10.0 9.0 8.9 93 0.6 SW 4 7 2 4 1018.3 1017.6 3.8
22/05:30am 10.1 8.7 8.7 91 0.7 SW 6 7 3 4 1018.3 1017.6 3.8
22/05:00am 11.1 8.4 9.0 87 1.1 SSW 13 15 7 8 1018.1 1017.4 3.8
22/04:30am 12.9 9.2 10.3 84 1.4 SW 20 30 11 16 1018.1 1017.4 3.8
22/04:00am 13.5 10.7 11.4 87 1.1 WSW 17 22 9 12 1017.8 1017.1 3.8
22/03:30am 13.9 10.9 11.9 88 1.1 WSW 19 26 10 14 1017.6 1016.9 3.8
22/03:00am 14.0 12.0 12.7 92 0.7 WSW 15 20 8 11 1017.7 1017.0 3.8
22/02:30am 13.8 12.6 12.7 93 0.6 W 11 15 6 8 1017.8 1017.1 3.8
22/02:00am 14.0 13.2 12.9 93 0.6 WNW 9 13 5 7 1018.0 1017.3 3.8
22/01:30am 14.1 13.3 13.0 93 0.6 W 9 13 5 7 1018.4 1017.7 3.8
22/01:00am 14.1 13.4 13.1 94 0.6 WNW 9 13 5 7 1018.6 1018.0 3.8
22/12:30am 14.1 13.7 13.1 94 0.6 W 7 11 4 6 1018.6 1018.0 3.8
22/12:00am 14.0 13.9 13.4 96 0.3 W 6 9 3 5 1018.9 1018.2 3.8
 
Date/Time
EST
Tmp

°C
App
Tmp
°C
Dew
Point
°C
Rel
Hum
%
Delta-T

°C
Wind Press
QNH
hPa
Press
MSL
hPa
Rain
since
9 am
mm
Dir
 
Spd
km/h
Gust
km/h
Spd
kts
Gust
kts
21/11:30pm 14.1 13.5 13.5 96 0.3 NW 9 11 5 6 1019.0 1018.3 3.6
21/11:00pm 14.2 13.6 13.6 96 0.3 WNW 9 13 5 7 1019.7 1019.0 3.0
21/10:30pm 14.3 13.9 13.0 92 0.7 W 7 11 4 6 1019.5 1018.8 1.6
21/10:00pm 15.0 15.2 13.0 88 1.1 W 4 9 2 5 1019.7 1019.0 0.0
21/09:30pm 15.6 15.1 12.5 82 1.7 W 7 13 4 7 1019.6 1018.9 0.0
21/09:00pm 15.9 15.1 13.0 83 1.6 W 9 13 5 7 1019.8 1019.1 0.0
21/08:30pm 16.2 16.0 13.1 82 1.8 W 6 7 3 4 1019.7 1019.0 0.0
21/08:00pm 16.3 16.2 13.2 82 1.8 SW 6 9 3 5 1019.5 1018.8 0.0
21/07:30pm 16.4 17.4 13.1 81 1.9 CALM 0 0 0 0 1019.4 1018.7 0.0
21/07:00pm 16.4 16.0 12.9 80 2.0 S 7 9 4 5 1019.5 1018.8 0.0
21/06:30pm 16.8 16.0 12.9 78 2.2 SSE 9 15 5 8 1019.2 1018.5 0.0
21/06:00pm 17.0 14.0 12.7 76 2.4 SSW 20 24 11 13 1019.3 1018.6 0.0
21/05:30pm 17.4 14.6 12.7 74 2.7 S 19 26 10 14 1019.2 1018.5 0.0
21/05:00pm 18.0 14.7 12.7 71 3.0 S 22 28 12 15 1019.0 1018.3 0.0
21/04:30pm 18.4 14.2 12.4 68 3.4 S 26 33 14 18 1018.5 1017.8 0.0
21/04:00pm 18.9 15.3 13.1 69 3.3 S 24 30 13 16 1018.4 1017.7 0.0
21/03:30pm 21.3 19.5 14.5 65 4.1 WSW 17 24 9 13 1017.8 1017.1 0.0
21/03:00pm 21.9 19.9 15.0 65 4.2 WSW 19 24 10 13 1017.7 1017.0 0.0
21/02:30pm 22.7 20.6 15.3 63 4.5 WSW 20 30 11 16 1017.6 1016.9 0.0
21/02:00pm 22.5 20.6 15.1 63 4.5 W 19 28 10 15 1017.5 1016.8 0.0
21/01:30pm 23.1 21.2 15.2 61 4.8 WNW 19 26 10 14 1017.5 1016.8 0.0
21/01:00pm 23.1 22.0 15.2 61 4.8 W 15 24 8 13 1018.1 1017.4 0.0
21/12:30pm 21.6 19.8 15.4 68 3.8 WSW 19 26 10 14 1018.8 1018.1 0.0
21/12:00pm 21.5 19.4 15.3 68 3.7 WNW 20 28 11 15 1019.4 1018.7 0.0
21/11:30am 21.3 19.4 15.2 68 3.7 WSW 19 26 10 14 1019.5 1018.8 0.0
21/11:00am 21.9 21.7 16.6 72 3.3 WNW 13 20 7 11 1019.8 1019.1 0.0
21/10:30am 20.8 20.6 16.6 77 2.6 WNW 13 17 7 9 1020.6 1020.0 0.0
21/10:00am 19.5 19.8 16.0 80 2.1 NW 9 17 5 9 1020.8 1020.2 0.0
21/09:30am 18.6 18.6 16.2 86 1.5 NNW 11 17 6 9 1021.1 1020.5 0.0
21/09:00am 17.5 17.7 16.7 95 0.5 NW 11 17 6 9 1021.3 1020.6 0.0
21/08:30am 16.9 17.5 16.7 99 0.1 NW 9 11 5 6 1020.9 1020.3 0.0
21/08:00am 16.2 16.9 16.0 99 0.1 N 7 11 4 6 1020.6 1020.0 0.0
21/07:30am 15.8 16.3 15.6 99 0.1 NW 7 11 4 6 1020.7 1020.1 0.0
21/07:00am 15.3 15.8 15.1 99 0.1 SSW 6 7 3 4 1020.4 1019.7 0.0
21/06:30am 14.5 15.9 14.3 99 0.1 CALM 0 0 0 0 1020.0 1019.3 0.0
21/06:00am 13.8 14.9 13.6 99 0.1 CALM 0 0 0 0 1019.4 1018.7 0.0
21/05:30am 13.5 14.1 13.2 98 0.2 WSW 2 6 1 3 1019.3 1018.6 0.0
21/05:00am 12.9 13.7 12.4 97 0.3 CALM 0 0 0 0 1019.3 1018.6 0.0
21/04:30am 13.3 14.2 13.0 98 0.2 CALM 0 0 0 0 1019.1 1018.4 0.0
21/04:00am 13.2 13.6 12.4 95 0.4 ENE 2 6 1 3 1019.1 1018.4 0.0
21/03:30am 14.2 14.3 13.9 98 0.2 SSE 6 7 3 4 1019.4 1018.7 0.0
21/03:00am 13.4 12.9 12.6 95 0.4 SSW 7 9 4 5 1019.6 1018.9 0.0
21/02:30am 14.3 15.0 13.5 95 0.5 NE 2 6 1 3 1019.4 1018.7 0.0
21/02:00am 14.7 15.9 13.9 95 0.5 CALM 0 0 0 0 1019.5 1018.8 0.0
21/01:30am 14.6 14.5 13.8 95 0.5 S 7 9 4 5 1020.0 1019.3 0.0
21/01:00am 14.3 15.3 13.2 93 0.6 CALM 0 0 0 0 1020.2 1019.5 0.0
21/12:30am 15.6 16.1 15.0 96 0.4 S 6 7 3 4 1019.8 1019.1 0.0
21/12:00am 15.3 16.3 14.2 93 0.6 N 2 7 1 4 1020.3 1019.6 0.0
 
Date/Time
EST
Tmp

°C
App
Tmp
°C
Dew
Point
°C
Rel
Hum
%
Delta-T

°C
Wind Press
QNH
hPa
Press
MSL
hPa
Rain
since
9 am
mm
Dir
 
Spd
km/h
Gust
km/h
Spd
kts
Gust
kts
20/11:30pm 15.3 16.5 13.8 91 0.9 CALM 0 0 0 0 1020.6 1020.0 0.0

Latest Capital City Observations: Canberra | Sydney | Melbourne | Brisbane | Adelaide | Perth | Hobart | Darwin

Other Formats:

Comma delimited format used in spreadsheet applications
http://www.bom.gov.au/fwo/IDQ60901/IDQ60901.94549.axf

JavaScript Object Notation format (JSON) in row-major order
http://www.bom.gov.au/fwo/IDQ60901/IDQ60901.94549.json